Details From MKJP - Norman Manley Intl
To MKJS - Sangster Intl
Flight Number -
Tags generated
Created
Modified
Stats Distance 73 nm / 135 km
Max Altitude 7,700 ft / 2,347 m
Waypoints 3
Social Downloads 0
Likes 0
Share VATSIM

Download

Looking for another format? Having issues loading an existing format? Contact us
Advertisement - Login to hide

Notes

Basic altitude profile: - Ascent Rate: 2500ft/min - Ascent Speed: 250kts - Cruise Altitude: 15000ft - Cruise Speed: 280kts - Descent Rate: 1500ft/min - Descent Speed: 250kts Options: - Use NATs: yes - Use PACOTS: yes - Use low airways: yes - Use high airways: yes

Route

MKJP KEMBO MKJS

ID Type Via Altitude Latitude Longitude Leg Dist Tot Dist Heading (true) Name
O MKJP APT - 0 ft / 0 m 17.93567˚ -76.78756˚ - 0 nm - Norman Manley Intl
KEMBO FIX - 7,700 ft / 2,347 m 18.21889˚ -77.35472˚ 36 nm 36 nm 298° / 298° -
O MKJS APT - 0 ft / 0 m 18.50355˚ -77.91370˚ 36 nm 72 nm 298° / 298° Sangster Intl

Altitude Profile

Advertisement - Login to hide

MKJP

Details ICAO MKJP (KIN)
Name Norman Manley Intl
Region Jamaica
Timezone Unknown (UTC+0.0)
Stats Elevation 10 ft / 3 m (AMSL)
Location 17.935665° -76.787560°
Runways 1
Magnetic Variation 7.590° W

METAR

MKJP 221200Z 12014KT 9999 FEW022 28/26 Q1013

Decode

TAF

TAF MKJP 221115Z 2212/2312 13025KT 9999 FEW022 TEMPO 2219/2221 6000 TSRA SCT018 BKN020CB BECMG 2301/2303 13015KT

Decode

Departure Runways

ID Width Length Bearing (true) Bearing (mag) Surface Threshold Offset Overrun Length
12 150 ft / 46 m 8,912 ft / 2,717 m 112.09° 119.68° Asphalt 0 ft / 0 m 0 ft / 0 m
30 150 ft / 46 m 8,912 ft / 2,717 m 292.10° 299.69° Asphalt 0 ft / 0 m 0 ft / 0 m

MKJS

Details ICAO MKJS (MBJ)
Name Sangster Intl
Region Jamaica
Timezone America/Jamaica (UTC-5.0)
Stats Elevation 6 ft / 2 m (AMSL)
Location 18.503549° -77.913698°
Runways 1
Magnetic Variation 7.006° W

METAR

MKJS 221200Z 19003KT 9999 FEW022CB SCT034 26/22 Q1013

Decode

TAF

TAF MKJS 221115Z 2212/2312 11005KT 9999 FEW022 SCT034 BECMG 2214/2216 08015KT TEMPO 2219/2222 2000 TSRA SQ BKN016 BKN018CB BECMG 2301/2303 11005KT

Decode

Destination Runways

ID Width Length Bearing (true) Bearing (mag) Surface Threshold Offset Overrun Length
07 161 ft / 49 m 8,495 ft / 2,589 m 65.37° 72.38° Asphalt 220 ft / 67 m 312 ft / 95 m
25 161 ft / 49 m 8,495 ft / 2,589 m 245.37° 252.38° Asphalt 577 ft / 176 m 200 ft / 61 m

Approach Navaids

Runway Type Ident Frequency Range Bearing (true) Bearing (mag) Slope Elevation
07 Localiser ISIA 109.50 MHz 18 nm / 33 km 65.41° 72.41° - 4 ft / 1 m (AMSL)
07 Glidescope ISIA 109.50 MHz 10 nm / 19 km 65.37° 72.38° 3.00° 4 ft / 1 m (AMSL)

Popular Alternatives